sensor_id;sensor_type;location;lat;lon;timestamp;temperature;humidity
28767;DHT22;15921;52.034;20.650;2023-03-01T00:01:19;-5.10;99.90
28767;DHT22;15921;52.034;20.650;2023-03-01T00:03:45;-5.10;99.90
28767;DHT22;15921;52.034;20.650;2023-03-01T00:06:11;-5.20;99.90
28767;DHT22;15921;52.034;20.650;2023-03-01T00:08:36;-5.20;99.90
28767;DHT22;15921;52.034;20.650;2023-03-01T00:11:15;-5.20;99.90
28767;DHT22;15921;52.034;20.650;2023-03-01T00:13:43;-5.20;99.90
28767;DHT22;15921;52.034;20.650;2023-03-01T00:16:13;-5.10;99.90
28767;DHT22;15921;52.034;20.650;2023-03-01T00:18:40;-5.00;99.90
28767;DHT22;15921;52.034;20.650;2023-03-01T00:21:05;-4.90;99.90
28767;DHT22;15921;52.034;20.650;2023-03-01T00:23:33;-4.80;99.90
28767;DHT22;15921;52.034;20.650;2023-03-01T00:25:59;-4.80;99.90
28767;DHT22;15921;52.034;20.650;2023-03-01T00:28:24;-4.80;99.90
28767;DHT22;15921;52.034;20.650;2023-03-01T00:30:50;-4.70;99.90
28767;DHT22;15921;52.034;20.650;2023-03-01T00:33:16;-4.70;99.90
28767;DHT22;15921;52.034;20.650;2023-03-01T00:35:41;-4.80;99.90
28767;DHT22;15921;52.034;20.650;2023-03-01T00:38:07;-4.80;99.90
28767;DHT22;15921;52.034;20.650;2023-03-01T00:40:34;-4.80;99.90
28767;DHT22;15921;52.034;20.650;2023-03-01T00:43:00;-4.80;99.90
28767;DHT22;15921;52.034;20.650;2023-03-01T00:45:27;-4.70;99.90
28767;DHT22;15921;52.034;20.650;2023-03-01T00:47:52;-4.70;99.90
28767;DHT22;15921;52.034;20.650;2023-03-01T00:50:19;-4.70;99.90
28767;DHT22;15921;52.034;20.650;2023-03-01T00:52:45;-4.70;99.90
28767;DHT22;15921;52.034;20.650;2023-03-01T00:55:11;-4.70;99.90
28767;DHT22;15921;52.034;20.650;2023-03-01T00:57:37;-4.80;99.90
28767;DHT22;15921;52.034;20.650;2023-03-01T01:00:05;-4.80;99.90
28767;DHT22;15921;52.034;20.650;2023-03-01T01:02:34;-4.70;99.90
28767;DHT22;15921;52.034;20.650;2023-03-01T01:05:00;-4.70;99.90
28767;DHT22;15921;52.034;20.650;2023-03-01T01:07:26;-4.70;99.90
28767;DHT22;15921;52.034;20.650;2023-03-01T01:09:52;-4.70;99.90
28767;DHT22;15921;52.034;20.650;2023-03-01T01:12:18;-4.70;99.90
28767;DHT22;15921;52.034;20.650;2023-03-01T01:14:43;-4.70;99.90
28767;DHT22;15921;52.034;20.650;2023-03-01T01:17:09;-4.70;99.90
28767;DHT22;15921;52.034;20.650;2023-03-01T01:19:35;-4.70;99.90
28767;DHT22;15921;52.034;20.650;2023-03-01T01:22:01;-4.70;99.90
28767;DHT22;15921;52.034;20.650;2023-03-01T01:24:26;-4.50;99.90
28767;DHT22;15921;52.034;20.650;2023-03-01T01:26:52;-4.60;99.90
28767;DHT22;15921;52.034;20.650;2023-03-01T01:29:18;-4.60;99.90
28767;DHT22;15921;52.034;20.650;2023-03-01T01:31:44;-4.60;99.90
28767;DHT22;15921;52.034;20.650;2023-03-01T01:34:17;-4.50;99.90
28767;DHT22;15921;52.034;20.650;2023-03-01T01:36:48;-4.50;99.90
28767;DHT22;15921;52.034;20.650;2023-03-01T01:39:14;-4.40;99.90
28767;DHT22;15921;52.034;20.650;2023-03-01T01:41:41;-4.40;99.90
28767;DHT22;15921;52.034;20.650;2023-03-01T01:47:03;-4.40;99.90
28767;DHT22;15921;52.034;20.650;2023-03-01T01:49:56;-4.30;99.90
28767;DHT22;15921;52.034;20.650;2023-03-01T01:52:25;-4.40;99.90
28767;DHT22;15921;52.034;20.650;2023-03-01T01:55:06;-4.40;99.90
28767;DHT22;15921;52.034;20.650;2023-03-01T01:57:40;-4.40;99.90
28767;DHT22;15921;52.034;20.650;2023-03-01T02:00:17;-4.30;99.90
28767;DHT22;15921;52.034;20.650;2023-03-01T02:02:45;-4.30;99.90
28767;DHT22;15921;52.034;20.650;2023-03-01T02:05:18;-4.40;99.90
28767;DHT22;15921;52.034;20.650;2023-03-01T02:07:45;-4.40;99.90
28767;DHT22;15921;52.034;20.650;2023-03-01T02:10:12;-4.40;99.90
28767;DHT22;15921;52.034;20.650;2023-03-01T02:12:38;-4.40;99.90
28767;DHT22;15921;52.034;20.650;2023-03-01T02:15:05;-4.30;99.90
28767;DHT22;15921;52.034;20.650;2023-03-01T02:17:31;-4.30;99.90
28767;DHT22;15921;52.034;20.650;2023-03-01T02:20:52;-4.30;99.90
28767;DHT22;15921;52.034;20.650;2023-03-01T02:23:08;-4.30;99.90
28767;DHT22;15921;52.034;20.650;2023-03-01T02:25:55;-4.30;99.90
28767;DHT22;15921;52.034;20.650;2023-03-01T02:28:25;-4.30;99.90
28767;DHT22;15921;52.034;20.650;2023-03-01T02:30:53;-4.40;99.90
28767;DHT22;15921;52.034;20.650;2023-03-01T02:33:39;-4.40;99.90
28767;DHT22;15921;52.034;20.650;2023-03-01T02:36:10;-4.40;99.90
28767;DHT22;15921;52.034;20.650;2023-03-01T02:38:39;-4.30;99.90
28767;DHT22;15921;52.034;20.650;2023-03-01T02:41:06;-4.30;99.90
28767;DHT22;15921;52.034;20.650;2023-03-01T02:43:33;-4.30;99.90
28767;DHT22;15921;52.034;20.650;2023-03-01T02:46:08;-4.30;99.90
28767;DHT22;15921;52.034;20.650;2023-03-01T02:48:42;-4.30;99.90
28767;DHT22;15921;52.034;20.650;2023-03-01T02:51:22;-4.30;99.90
28767;DHT22;15921;52.034;20.650;2023-03-01T02:54:15;-4.30;99.90
28767;DHT22;15921;52.034;20.650;2023-03-01T02:56:43;-4.30;99.90
28767;DHT22;15921;52.034;20.650;2023-03-01T02:59:09;-4.30;99.90
28767;DHT22;15921;52.034;20.650;2023-03-01T03:01:36;-4.30;99.90
28767;DHT22;15921;52.034;20.650;2023-03-01T03:04:06;-4.30;99.90
28767;DHT22;15921;52.034;20.650;2023-03-01T03:06:32;-4.20;99.90
28767;DHT22;15921;52.034;20.650;2023-03-01T03:08:59;-4.30;99.90
28767;DHT22;15921;52.034;20.650;2023-03-01T03:11:25;-4.30;99.90
28767;DHT22;15921;52.034;20.650;2023-03-01T03:13:51;-4.30;99.90
28767;DHT22;15921;52.034;20.650;2023-03-01T03:16:17;-4.40;99.90
28767;DHT22;15921;52.034;20.650;2023-03-01T03:18:43;-4.40;99.90
28767;DHT22;15921;52.034;20.650;2023-03-01T03:21:11;-4.40;99.90
28767;DHT22;15921;52.034;20.650;2023-03-01T03:23:37;-4.40;99.90
28767;DHT22;15921;52.034;20.650;2023-03-01T03:26:04;-4.30;99.90
28767;DHT22;15921;52.034;20.650;2023-03-01T03:28:33;-4.30;99.90
28767;DHT22;15921;52.034;20.650;2023-03-01T03:31:00;-4.30;99.90
28767;DHT22;15921;52.034;20.650;2023-03-01T03:33:32;-4.30;99.90
28767;DHT22;15921;52.034;20.650;2023-03-01T03:35:58;-4.30;99.90
28767;DHT22;15921;52.034;20.650;2023-03-01T03:38:24;-4.30;99.90
28767;DHT22;15921;52.034;20.650;2023-03-01T03:40:52;-4.30;99.90
28767;DHT22;15921;52.034;20.650;2023-03-01T03:43:26;-4.30;99.90
28767;DHT22;15921;52.034;20.650;2023-03-01T03:45:52;-4.30;99.90
28767;DHT22;15921;52.034;20.650;2023-03-01T03:48:19;-4.30;99.90
28767;DHT22;15921;52.034;20.650;2023-03-01T03:50:53;-4.20;99.90
28767;DHT22;15921;52.034;20.650;2023-03-01T03:53:20;-4.10;99.90
28767;DHT22;15921;52.034;20.650;2023-03-01T03:55:46;-4.10;99.90
28767;DHT22;15921;52.034;20.650;2023-03-01T03:58:15;-4.00;99.90
28767;DHT22;15921;52.034;20.650;2023-03-01T04:00:44;-4.00;99.90
28767;DHT22;15921;52.034;20.650;2023-03-01T04:03:12;-3.90;99.90
28767;DHT22;15921;52.034;20.650;2023-03-01T04:05:39;-3.80;99.90
28767;DHT22;15921;52.034;20.650;2023-03-01T04:08:06;-3.90;99.90
28767;DHT22;15921;52.034;20.650;2023-03-01T04:10:37;-3.90;99.90
28767;DHT22;15921;52.034;20.650;2023-03-01T04:13:04;-3.80;99.90
28767;DHT22;15921;52.034;20.650;2023-03-01T04:15:30;-3.80;99.90
28767;DHT22;15921;52.034;20.650;2023-03-01T04:17:58;-3.80;99.90
28767;DHT22;15921;52.034;20.650;2023-03-01T04:20:26;-3.70;99.90
28767;DHT22;15921;52.034;20.650;2023-03-01T04:22:58;-3.50;99.90
28767;DHT22;15921;52.034;20.650;2023-03-01T04:25:24;-3.50;99.90
28767;DHT22;15921;52.034;20.650;2023-03-01T04:27:50;-3.40;99.90
28767;DHT22;15921;52.034;20.650;2023-03-01T04:30:16;-3.30;99.90
28767;DHT22;15921;52.034;20.650;2023-03-01T04:32:42;-3.20;99.90
28767;DHT22;15921;52.034;20.650;2023-03-01T04:35:08;-3.10;99.90
28767;DHT22;15921;52.034;20.650;2023-03-01T04:37:34;-3.10;99.90
28767;DHT22;15921;52.034;20.650;2023-03-01T04:40:01;-3.10;99.90
28767;DHT22;15921;52.034;20.650;2023-03-01T04:42:33;-3.10;99.90
28767;DHT22;15921;52.034;20.650;2023-03-01T04:44:58;-3.00;99.90
28767;DHT22;15921;52.034;20.650;2023-03-01T04:47:24;-3.00;99.90
28767;DHT22;15921;52.034;20.650;2023-03-01T04:49:50;-2.90;99.90
28767;DHT22;15921;52.034;20.650;2023-03-01T04:52:15;-2.90;99.90
28767;DHT22;15921;52.034;20.650;2023-03-01T04:54:41;-2.90;99.90
28767;DHT22;15921;52.034;20.650;2023-03-01T04:57:08;-2.90;99.90
28767;DHT22;15921;52.034;20.650;2023-03-01T04:59:34;-2.90;99.90
28767;DHT22;15921;52.034;20.650;2023-03-01T05:02:01;-2.90;99.90
28767;DHT22;15921;52.034;20.650;2023-03-01T05:04:27;-2.90;99.90
28767;DHT22;15921;52.034;20.650;2023-03-01T05:06:53;-2.90;99.90
28767;DHT22;15921;52.034;20.650;2023-03-01T05:09:19;-2.90;99.90
28767;DHT22;15921;52.034;20.650;2023-03-01T05:11:44;-2.90;99.90
28767;DHT22;15921;52.034;20.650;2023-03-01T05:14:11;-2.90;99.90
28767;DHT22;15921;52.034;20.650;2023-03-01T05:16:36;-2.90;99.90
28767;DHT22;15921;52.034;20.650;2023-03-01T05:19:03;-2.90;99.90
28767;DHT22;15921;52.034;20.650;2023-03-01T05:21:41;-2.80;99.90
28767;DHT22;15921;52.034;20.650;2023-03-01T05:24:25;-2.90;99.90
28767;DHT22;15921;52.034;20.650;2023-03-01T05:26:52;-2.90;99.90
28767;DHT22;15921;52.034;20.650;2023-03-01T05:29:22;-2.90;99.90
28767;DHT22;15921;52.034;20.650;2023-03-01T05:31:53;-2.90;99.90
28767;DHT22;15921;52.034;20.650;2023-03-01T05:34:27;-3.00;99.90
28767;DHT22;15921;52.034;20.650;2023-03-01T05:36:53;-3.10;99.90
28767;DHT22;15921;52.034;20.650;2023-03-01T05:39:25;-3.10;99.90
28767;DHT22;15921;52.034;20.650;2023-03-01T05:41:55;-3.10;99.90
28767;DHT22;15921;52.034;20.650;2023-03-01T05:44:22;-3.00;99.90
28767;DHT22;15921;52.034;20.650;2023-03-01T05:46:48;-2.90;99.90
28767;DHT22;15921;52.034;20.650;2023-03-01T05:49:14;-2.80;99.90
28767;DHT22;15921;52.034;20.650;2023-03-01T05:51:41;-2.80;99.90
28767;DHT22;15921;52.034;20.650;2023-03-01T05:54:07;-2.70;99.90
28767;DHT22;15921;52.034;20.650;2023-03-01T05:56:34;-2.70;99.90
28767;DHT22;15921;52.034;20.650;2023-03-01T05:59:00;-2.60;99.90
28767;DHT22;15921;52.034;20.650;2023-03-01T06:01:26;-2.60;99.90
28767;DHT22;15921;52.034;20.650;2023-03-01T06:03:52;-2.50;99.90
28767;DHT22;15921;52.034;20.650;2023-03-01T06:06:18;-2.40;99.90
28767;DHT22;15921;52.034;20.650;2023-03-01T06:08:43;-2.40;99.90
28767;DHT22;15921;52.034;20.650;2023-03-01T06:11:09;-2.30;99.90
28767;DHT22;15921;52.034;20.650;2023-03-01T06:13:35;-2.20;99.90
28767;DHT22;15921;52.034;20.650;2023-03-01T06:16:04;-2.10;99.90
28767;DHT22;15921;52.034;20.650;2023-03-01T06:18:31;-2.10;99.90
28767;DHT22;15921;52.034;20.650;2023-03-01T06:20:56;-2.00;99.90
28767;DHT22;15921;52.034;20.650;2023-03-01T06:23:23;-2.00;99.90
28767;DHT22;15921;52.034;20.650;2023-03-01T06:25:49;-1.90;99.90
28767;DHT22;15921;52.034;20.650;2023-03-01T06:28:15;-1.80;99.90
28767;DHT22;15921;52.034;20.650;2023-03-01T06:30:41;-1.70;99.90
28767;DHT22;15921;52.034;20.650;2023-03-01T06:33:06;-1.70;99.90
28767;DHT22;15921;52.034;20.650;2023-03-01T06:35:32;-1.60;99.90
28767;DHT22;15921;52.034;20.650;2023-03-01T06:37:59;-1.50;99.90
28767;DHT22;15921;52.034;20.650;2023-03-01T06:40:25;-1.40;99.90
28767;DHT22;15921;52.034;20.650;2023-03-01T06:42:51;-1.40;99.90
28767;DHT22;15921;52.034;20.650;2023-03-01T06:45:19;-1.30;99.90
28767;DHT22;15921;52.034;20.650;2023-03-01T06:47:45;-1.20;99.90
28767;DHT22;15921;52.034;20.650;2023-03-01T06:50:12;-1.10;99.90
28767;DHT22;15921;52.034;20.650;2023-03-01T06:52:38;-1.00;99.90
28767;DHT22;15921;52.034;20.650;2023-03-01T06:55:04;-1.00;99.90
28767;DHT22;15921;52.034;20.650;2023-03-01T06:57:30;-0.90;99.90
28767;DHT22;15921;52.034;20.650;2023-03-01T06:59:56;-0.90;99.90
28767;DHT22;15921;52.034;20.650;2023-03-01T07:02:21;-0.80;99.90
28767;DHT22;15921;52.034;20.650;2023-03-01T07:04:49;-0.80;99.90
28767;DHT22;15921;52.034;20.650;2023-03-01T07:07:15;-0.70;99.90
28767;DHT22;15921;52.034;20.650;2023-03-01T07:09:41;-0.60;99.90
28767;DHT22;15921;52.034;20.650;2023-03-01T07:12:07;-0.50;99.90
28767;DHT22;15921;52.034;20.650;2023-03-01T07:14:33;-0.50;99.90
28767;DHT22;15921;52.034;20.650;2023-03-01T07:16:59;-0.40;99.90
28767;DHT22;15921;52.034;20.650;2023-03-01T07:19:25;-0.30;99.90
28767;DHT22;15921;52.034;20.650;2023-03-01T07:21:50;-0.20;99.90
28767;DHT22;15921;52.034;20.650;2023-03-01T07:24:16;-0.20;99.90
28767;DHT22;15921;52.034;20.650;2023-03-01T07:26:42;-0.20;99.90
28767;DHT22;15921;52.034;20.650;2023-03-01T07:29:09;-0.10;99.90
28767;DHT22;15921;52.034;20.650;2023-03-01T07:31:35;0.00;99.90
28767;DHT22;15921;52.034;20.650;2023-03-01T07:34:02;0.00;99.90
28767;DHT22;15921;52.034;20.650;2023-03-01T07:36:28;0.10;99.90
28767;DHT22;15921;52.034;20.650;2023-03-01T07:38:54;0.20;99.90
28767;DHT22;15921;52.034;20.650;2023-03-01T07:41:21;0.20;99.90
28767;DHT22;15921;52.034;20.650;2023-03-01T07:43:47;0.30;99.90
28767;DHT22;15921;52.034;20.650;2023-03-01T07:46:13;0.40;99.90
28767;DHT22;15921;52.034;20.650;2023-03-01T07:48:38;0.40;99.90
28767;DHT22;15921;52.034;20.650;2023-03-01T07:51:05;0.60;99.90
28767;DHT22;15921;52.034;20.650;2023-03-01T07:53:32;0.70;99.90
28767;DHT22;15921;52.034;20.650;2023-03-01T07:56:08;0.80;99.90
28767;DHT22;15921;52.034;20.650;2023-03-01T07:58:35;0.70;99.90
28767;DHT22;15921;52.034;20.650;2023-03-01T08:01:03;0.80;99.90
28767;DHT22;15921;52.034;20.650;2023-03-01T08:03:28;0.90;99.90
28767;DHT22;15921;52.034;20.650;2023-03-01T08:05:54;1.00;99.90
28767;DHT22;15921;52.034;20.650;2023-03-01T08:08:20;1.10;99.90
28767;DHT22;15921;52.034;20.650;2023-03-01T08:10:45;1.20;99.90
28767;DHT22;15921;52.034;20.650;2023-03-01T08:13:11;1.30;99.90
28767;DHT22;15921;52.034;20.650;2023-03-01T08:15:37;1.40;99.90
28767;DHT22;15921;52.034;20.650;2023-03-01T08:18:02;1.50;99.90
28767;DHT22;15921;52.034;20.650;2023-03-01T08:20:28;1.60;99.90
28767;DHT22;15921;52.034;20.650;2023-03-01T08:22:54;1.70;99.90
28767;DHT22;15921;52.034;20.650;2023-03-01T08:25:19;1.80;99.90
28767;DHT22;15921;52.034;20.650;2023-03-01T08:27:45;1.90;98.70
28767;DHT22;15921;52.034;20.650;2023-03-01T08:30:11;2.00;98.70
28767;DHT22;15921;52.034;20.650;2023-03-01T08:32:38;2.10;97.70
28767;DHT22;15921;52.034;20.650;2023-03-01T08:35:05;2.30;97.70
28767;DHT22;15921;52.034;20.650;2023-03-01T08:37:30;2.40;97.80
28767;DHT22;15921;52.034;20.650;2023-03-01T08:39:59;2.50;97.20
28767;DHT22;15921;52.034;20.650;2023-03-01T08:42:25;2.70;96.30
28767;DHT22;15921;52.034;20.650;2023-03-01T08:44:51;2.80;95.70
28767;DHT22;15921;52.034;20.650;2023-03-01T08:47:17;2.80;95.10
28767;DHT22;15921;52.034;20.650;2023-03-01T08:49:42;3.00;95.90
28767;DHT22;15921;52.034;20.650;2023-03-01T08:52:08;3.20;95.30
28767;DHT22;15921;52.034;20.650;2023-03-01T08:54:34;3.30;93.60
28767;DHT22;15921;52.034;20.650;2023-03-01T08:57:02;3.30;93.70
28767;DHT22;15921;52.034;20.650;2023-03-01T08:59:27;3.30;93.40
28767;DHT22;15921;52.034;20.650;2023-03-01T09:01:55;3.30;92.90
28767;DHT22;15921;52.034;20.650;2023-03-01T09:04:21;3.40;92.90
28767;DHT22;15921;52.034;20.650;2023-03-01T09:06:47;3.50;93.00
28767;DHT22;15921;52.034;20.650;2023-03-01T09:09:17;3.60;92.90
28767;DHT22;15921;52.034;20.650;2023-03-01T09:11:44;3.70;91.80
28767;DHT22;15921;52.034;20.650;2023-03-01T09:14:12;3.60;91.40
28767;DHT22;15921;52.034;20.650;2023-03-01T09:16:38;3.60;91.50
28767;DHT22;15921;52.034;20.650;2023-03-01T09:19:04;3.70;91.70
28767;DHT22;15921;52.034;20.650;2023-03-01T09:21:30;3.80;91.70
28767;DHT22;15921;52.034;20.650;2023-03-01T09:23:56;3.90;91.30
28767;DHT22;15921;52.034;20.650;2023-03-01T09:26:22;4.00;90.80
28767;DHT22;15921;52.034;20.650;2023-03-01T09:28:50;4.10;90.80
28767;DHT22;15921;52.034;20.650;2023-03-01T09:31:18;4.20;91.10
28767;DHT22;15921;52.034;20.650;2023-03-01T09:33:47;4.50;90.90
28767;DHT22;15921;52.034;20.650;2023-03-01T09:36:15;4.50;90.00
28767;DHT22;15921;52.034;20.650;2023-03-01T09:38:42;4.50;89.90
28767;DHT22;15921;52.034;20.650;2023-03-01T09:46:36;4.60;90.00
28767;DHT22;15921;52.034;20.650;2023-03-01T09:49:21;4.80;90.90
28767;DHT22;15921;52.034;20.650;2023-03-01T09:51:55;4.90;90.50
28767;DHT22;15921;52.034;20.650;2023-03-01T09:54:21;5.10;90.70
28767;DHT22;15921;52.034;20.650;2023-03-01T10:05:29;4.80;90.50
28767;DHT22;15921;52.034;20.650;2023-03-01T10:10:33;4.80;90.10
28767;DHT22;15921;52.034;20.650;2023-03-01T10:13:08;4.80;90.70
28767;DHT22;15921;52.034;20.650;2023-03-01T10:15:44;4.70;91.00
28767;DHT22;15921;52.034;20.650;2023-03-01T10:18:22;4.70;91.10
28767;DHT22;15921;52.034;20.650;2023-03-01T10:21:07;4.80;91.30
28767;DHT22;15921;52.034;20.650;2023-03-01T10:23:35;4.90;91.30
28767;DHT22;15921;52.034;20.650;2023-03-01T10:29:07;5.00;91.20
28767;DHT22;15921;52.034;20.650;2023-03-01T10:31:48;5.00;90.90
28767;DHT22;15921;52.034;20.650;2023-03-01T10:36:47;5.10;91.50
28767;DHT22;15921;52.034;20.650;2023-03-01T10:39:21;5.20;91.20
28767;DHT22;15921;52.034;20.650;2023-03-01T10:42:05;5.00;91.30
28767;DHT22;15921;52.034;20.650;2023-03-01T10:44:45;4.90;91.70
28767;DHT22;15921;52.034;20.650;2023-03-01T10:47:26;5.10;92.00
28767;DHT22;15921;52.034;20.650;2023-03-01T10:52:23;5.10;91.70
28767;DHT22;15921;52.034;20.650;2023-03-01T10:54:58;5.10;91.80
28767;DHT22;15921;52.034;20.650;2023-03-01T10:57:37;5.30;91.90
28767;DHT22;15921;52.034;20.650;2023-03-01T11:00:25;5.30;91.30
28767;DHT22;15921;52.034;20.650;2023-03-01T11:03:12;5.20;91.60
28767;DHT22;15921;52.034;20.650;2023-03-01T11:05:51;5.20;91.90
28767;DHT22;15921;52.034;20.650;2023-03-01T11:08:36;5.30;91.90
28767;DHT22;15921;52.034;20.650;2023-03-01T11:11:33;5.50;91.70
28767;DHT22;15921;52.034;20.650;2023-03-01T11:16:43;5.60;91.30
28767;DHT22;15921;52.034;20.650;2023-03-01T11:21:42;5.60;91.50
28767;DHT22;15921;52.034;20.650;2023-03-01T11:24:11;5.70;91.50
28767;DHT22;15921;52.034;20.650;2023-03-01T11:26:41;5.70;91.40
28767;DHT22;15921;52.034;20.650;2023-03-01T11:31:58;5.70;91.30
28767;DHT22;15921;52.034;20.650;2023-03-01T11:37:16;5.80;91.30
28767;DHT22;15921;52.034;20.650;2023-03-01T11:39:55;5.80;91.50
28767;DHT22;15921;52.034;20.650;2023-03-01T11:45:12;6.00;91.70
28767;DHT22;15921;52.034;20.650;2023-03-01T11:56:05;6.60;90.60
28767;DHT22;15921;52.034;20.650;2023-03-01T12:01:38;7.00;89.10
28767;DHT22;15921;52.034;20.650;2023-03-01T12:04:22;7.30;88.20
28767;DHT22;15921;52.034;20.650;2023-03-01T12:07:00;7.30;88.00
28767;DHT22;15921;52.034;20.650;2023-03-01T12:15:33;7.40;87.70
28767;DHT22;15921;52.034;20.650;2023-03-01T12:34:24;15.60;62.00
28767;DHT22;15921;52.034;20.650;2023-03-01T12:45:30;18.10;55.10
28767;DHT22;15921;52.034;20.650;2023-03-01T12:50:57;17.40;55.30
28767;DHT22;15921;52.034;20.650;2023-03-01T12:53:28;17.50;55.80
28767;DHT22;15921;52.034;20.650;2023-03-01T12:55:59;17.70;54.50
28767;DHT22;15921;52.034;20.650;2023-03-01T12:58:33;17.80;55.20
28767;DHT22;15921;52.034;20.650;2023-03-01T13:01:23;17.90;54.70
28767;DHT22;15921;52.034;20.650;2023-03-01T13:06:50;18.10;54.30
28767;DHT22;15921;52.034;20.650;2023-03-01T13:09:25;17.80;53.40
28767;DHT22;15921;52.034;20.650;2023-03-01T13:11:56;17.50;52.60
28767;DHT22;15921;52.034;20.650;2023-03-01T13:16:54;17.40;54.10
28767;DHT22;15921;52.034;20.650;2023-03-01T13:19:23;16.90;55.70
28767;DHT22;15921;52.034;20.650;2023-03-01T13:21:51;17.00;55.10
28767;DHT22;15921;52.034;20.650;2023-03-01T13:24:39;17.70;55.30
28767;DHT22;15921;52.034;20.650;2023-03-01T13:27:20;18.50;53.70
28767;DHT22;15921;52.034;20.650;2023-03-01T13:29:54;18.90;52.30
28767;DHT22;15921;52.034;20.650;2023-03-01T13:34:47;18.00;51.90
28767;DHT22;15921;52.034;20.650;2023-03-01T13:37:28;17.20;54.00
28767;DHT22;15921;52.034;20.650;2023-03-01T13:39:59;16.10;56.10
28767;DHT22;15921;52.034;20.650;2023-03-01T13:42:37;15.20;58.80
28767;DHT22;15921;52.034;20.650;2023-03-01T13:45:12;15.50;58.10
28767;DHT22;15921;52.034;20.650;2023-03-01T13:47:41;16.10;56.50
28767;DHT22;15921;52.034;20.650;2023-03-01T13:50:20;16.10;57.00
28767;DHT22;15921;52.034;20.650;2023-03-01T13:52:52;16.40;56.40
28767;DHT22;15921;52.034;20.650;2023-03-01T13:55:25;16.00;56.60
28767;DHT22;15921;52.034;20.650;2023-03-01T13:57:53;15.60;57.40
28767;DHT22;15921;52.034;20.650;2023-03-01T14:06:05;13.20;62.60
28767;DHT22;15921;52.034;20.650;2023-03-01T14:08:29;12.90;64.50
28767;DHT22;15921;52.034;20.650;2023-03-01T14:19:05;14.50;61.10
28767;DHT22;15921;52.034;20.650;2023-03-01T14:21:36;14.00;60.00
28767;DHT22;15921;52.034;20.650;2023-03-01T14:24:02;12.80;63.80
28767;DHT22;15921;52.034;20.650;2023-03-01T14:26:30;13.00;64.30
28767;DHT22;15921;52.034;20.650;2023-03-01T14:28:56;13.40;63.70
28767;DHT22;15921;52.034;20.650;2023-03-01T14:31:35;14.00;61.30
28767;DHT22;15921;52.034;20.650;2023-03-01T14:34:02;14.60;59.90
28767;DHT22;15921;52.034;20.650;2023-03-01T14:36:32;14.40;60.40
28767;DHT22;15921;52.034;20.650;2023-03-01T14:38:57;14.10;60.80
28767;DHT22;15921;52.034;20.650;2023-03-01T14:41:33;14.70;60.90
28767;DHT22;15921;52.034;20.650;2023-03-01T14:44:03;15.40;58.90
28767;DHT22;15921;52.034;20.650;2023-03-01T14:46:32;15.60;57.50
28767;DHT22;15921;52.034;20.650;2023-03-01T14:51:43;15.50;57.80
28767;DHT22;15921;52.034;20.650;2023-03-01T14:56:46;15.30;59.20
28767;DHT22;15921;52.034;20.650;2023-03-01T14:59:12;15.90;57.60
28767;DHT22;15921;52.034;20.650;2023-03-01T15:01:40;15.60;57.80
28767;DHT22;15921;52.034;20.650;2023-03-01T15:04:11;16.00;57.70
28767;DHT22;15921;52.034;20.650;2023-03-01T15:06:38;15.30;57.00
28767;DHT22;15921;52.034;20.650;2023-03-01T15:09:04;14.70;59.50
28767;DHT22;15921;52.034;20.650;2023-03-01T15:11:32;14.40;59.80
28767;DHT22;15921;52.034;20.650;2023-03-01T15:13:58;14.50;60.00
28767;DHT22;15921;52.034;20.650;2023-03-01T15:18:56;13.70;61.70
28767;DHT22;15921;52.034;20.650;2023-03-01T15:21:37;13.20;62.20
28767;DHT22;15921;52.034;20.650;2023-03-01T15:26:49;12.60;63.90
28767;DHT22;15921;52.034;20.650;2023-03-01T15:29:22;12.00;65.50
28767;DHT22;15921;52.034;20.650;2023-03-01T15:34:30;11.20;67.80
28767;DHT22;15921;52.034;20.650;2023-03-01T15:36:59;10.80;69.30
28767;DHT22;15921;52.034;20.650;2023-03-01T15:39:42;10.50;70.20
28767;DHT22;15921;52.034;20.650;2023-03-01T15:42:13;9.80;72.20
28767;DHT22;15921;52.034;20.650;2023-03-01T15:45:28;9.00;74.10
28767;DHT22;15921;52.034;20.650;2023-03-01T15:48:00;8.20;77.20
28767;DHT22;15921;52.034;20.650;2023-03-01T15:50:34;7.70;78.90
28767;DHT22;15921;52.034;20.650;2023-03-01T15:53:05;7.40;80.40
28767;DHT22;15921;52.034;20.650;2023-03-01T15:55:32;7.00;81.50
28767;DHT22;15921;52.034;20.650;2023-03-01T15:58:22;6.80;82.60
28767;DHT22;15921;52.034;20.650;2023-03-01T16:00:50;6.60;84.40
28767;DHT22;15921;52.034;20.650;2023-03-01T16:03:21;6.30;85.20
28767;DHT22;15921;52.034;20.650;2023-03-01T16:05:49;6.00;86.70
28767;DHT22;15921;52.034;20.650;2023-03-01T16:08:15;5.90;86.70
28767;DHT22;15921;52.034;20.650;2023-03-01T16:10:41;5.70;88.80
28767;DHT22;15921;52.034;20.650;2023-03-01T16:13:10;5.40;89.30
28767;DHT22;15921;52.034;20.650;2023-03-01T16:15:36;5.20;90.20
28767;DHT22;15921;52.034;20.650;2023-03-01T16:18:03;5.10;90.50
28767;DHT22;15921;52.034;20.650;2023-03-01T16:20:30;4.90;91.10
28767;DHT22;15921;52.034;20.650;2023-03-01T16:23:01;4.70;91.50
28767;DHT22;15921;52.034;20.650;2023-03-01T16:25:27;4.60;92.10
28767;DHT22;15921;52.034;20.650;2023-03-01T16:27:53;4.50;92.00
28767;DHT22;15921;52.034;20.650;2023-03-01T16:30:21;4.40;92.40
28767;DHT22;15921;52.034;20.650;2023-03-01T16:32:48;4.30;92.90
28767;DHT22;15921;52.034;20.650;2023-03-01T16:35:16;4.10;93.40
28767;DHT22;15921;52.034;20.650;2023-03-01T16:37:42;4.00;93.90
28767;DHT22;15921;52.034;20.650;2023-03-01T16:42:44;3.80;94.30
28767;DHT22;15921;52.034;20.650;2023-03-01T16:45:10;3.60;95.00
28767;DHT22;15921;52.034;20.650;2023-03-01T16:47:36;3.50;96.50
28767;DHT22;15921;52.034;20.650;2023-03-01T16:50:02;3.30;97.70
28767;DHT22;15921;52.034;20.650;2023-03-01T16:52:28;3.20;98.80
28767;DHT22;15921;52.034;20.650;2023-03-01T16:54:54;3.10;99.70
28767;DHT22;15921;52.034;20.650;2023-03-01T16:57:19;3.00;99.90
28767;DHT22;15921;52.034;20.650;2023-03-01T16:59:45;2.90;99.90
28767;DHT22;15921;52.034;20.650;2023-03-01T17:02:12;2.70;99.90
28767;DHT22;15921;52.034;20.650;2023-03-01T17:04:41;2.60;99.90
28767;DHT22;15921;52.034;20.650;2023-03-01T17:07:07;2.50;99.90
28767;DHT22;15921;52.034;20.650;2023-03-01T17:09:36;2.40;99.90
28767;DHT22;15921;52.034;20.650;2023-03-01T17:12:04;2.40;99.90
28767;DHT22;15921;52.034;20.650;2023-03-01T17:14:30;2.40;99.90
28767;DHT22;15921;52.034;20.650;2023-03-01T17:16:55;2.30;99.90
28767;DHT22;15921;52.034;20.650;2023-03-01T17:19:21;2.30;99.90
28767;DHT22;15921;52.034;20.650;2023-03-01T17:21:47;2.30;99.90
28767;DHT22;15921;52.034;20.650;2023-03-01T17:24:12;2.20;99.90
28767;DHT22;15921;52.034;20.650;2023-03-01T17:26:38;2.10;99.90
28767;DHT22;15921;52.034;20.650;2023-03-01T17:29:05;2.10;99.90
28767;DHT22;15921;52.034;20.650;2023-03-01T17:31:32;2.10;99.90
28767;DHT22;15921;52.034;20.650;2023-03-01T17:33:58;2.00;99.90
28767;DHT22;15921;52.034;20.650;2023-03-01T17:36:24;1.90;99.90
28767;DHT22;15921;52.034;20.650;2023-03-01T17:38:50;1.90;99.90